Time;durP1;ratioP1;P1;durP2;ratioP2;P2;SDS_P1;SDS_P2;PMS_P1;PMS_P2;Temp;Humidity;BMP_temperature;BMP_pressure;BME280_temperature;BME280_humidity;BME280_pressure;Samples;Min_cycle;Max_cycle;Signal;HPM_P1;HPM_P2
2022/07/28 00:03:49;;;;;;;;;;;18.90;38.60;;;16.20;42.69;101466.34;12255149;19;19915;-92
2022/07/28 00:07:51;;;;;;;;;;;18.80;38.60;;;16.00;42.86;101454.50;12259114;19;20286;-92
2022/07/28 00:11:52;;;;;;;;;;;18.70;39.00;;;16.24;42.95;101513.47;12259347;19;19911;-93
2022/07/28 00:15:54;;;;;;;;;;;18.60;38.80;;;15.96;42.93;101468.81;12259876;19;20348;-92
2022/07/28 00:19:56;;;;;;;;;;;18.50;38.90;;;16.14;42.97;101509.75;12258152;19;19907;-91
2022/07/28 00:23:57;;;;;;;;;;;18.50;38.90;;;15.78;42.95;101461.19;12257217;19;19966;-92
2022/07/28 00:27:59;;;;;;;;;;;18.40;38.90;;;15.34;43.20;101403.47;12261349;19;20336;-92
2022/07/28 00:32:00;;;;;;;;;;;18.30;38.90;;;15.55;43.15;101457.34;12260080;19;19922;-92
2022/07/28 00:36:02;;;;;;;;;;;18.50;39.00;;;15.55;43.08;101470.50;12260485;19;19923;-92
2022/07/28 00:40:04;;;;;;;;;;;18.10;38.90;;;15.47;43.09;101473.66;12257131;19;19911;-92
2022/07/28 00:44:06;;;;;;;;;;;18.10;39.00;;;15.46;43.17;101493.00;12256195;19;20368;-92
2022/07/28 00:48:08;;;;;;;;;;;18.00;39.00;;;15.68;43.19;101539.03;12257887;19;19944;-93
2022/07/28 00:52:10;;;;;;;;;;;18.10;39.10;;;15.23;43.35;101480.47;12255054;19;19934;-91
2022/07/28 00:56:13;;;;;;;;;;;17.80;39.00;;;15.12;43.45;101475.91;12255075;19;19907;-93
2022/07/28 01:00:15;;;;;;;;;;;17.70;39.00;;;14.99;43.34;101467.06;12248944;19;19926;-91
2022/07/28 01:04:17;;;;;;;;;;;17.70;39.10;;;15.37;43.34;101530.47;12250790;19;19903;-91
2022/07/28 01:08:52;;;;;;;;;;;17.70;39.30;;;15.42;43.51;101562.59;12252767;19;20326;-92
2022/07/28 01:12:54;;;;;;;;;;;17.50;39.20;;;15.34;43.46;101566.63;12253458;19;19926;-93
2022/07/28 01:16:57;;;;;;;;;;;17.40;39.30;;;15.16;43.46;101530.00;12256902;19;19915;-92
2022/07/28 01:21:03;;;;;;;;;;;17.40;39.40;;;14.85;43.54;101488.94;12256282;19;19927;-92
2022/07/28 01:25:46;;;;;;;;;;;17.30;39.40;;;15.14;43.66;101534.50;12257186;19;19910;-91
2022/07/28 01:30:06;;;;;;;;;;;17.30;39.50;;;15.20;43.81;101547.31;12253395;19;19931;-92
2022/07/28 01:34:15;;;;;;;;;;;17.30;39.70;;;14.89;43.93;101492.25;12249106;19;19943;-92
2022/07/28 01:38:18;;;;;;;;;;;17.30;39.80;;;15.08;43.96;101529.63;12249442;19;19907;-92
2022/07/28 01:42:25;;;;;;;;;;;17.60;39.90;;;15.23;43.99;101557.63;12249910;19;19919;-91
2022/07/28 01:46:27;;;;;;;;;;;17.30;39.80;;;15.17;44.00;101538.72;12251422;19;19923;-92
2022/07/28 01:50:30;;;;;;;;;;;17.30;39.80;;;15.23;43.91;101552.38;12248380;19;19911;-92
2022/07/28 01:54:31;;;;;;;;;;;17.30;39.80;;;15.16;44.08;101545.78;12248435;19;19926;-91
2022/07/28 01:58:34;;;;;;;;;;;17.30;39.80;;;14.74;43.76;101489.59;12248784;19;19934;-91
2022/07/28 02:02:36;;;;;;;;;;;17.30;39.70;;;14.89;43.88;101524.63;12249482;19;19911;-91
2022/07/28 02:06:39;;;;;;;;;;;17.20;39.50;;;14.99;44.05;101559.97;12249952;19;19920;-91
2022/07/28 02:10:41;;;;;;;;;;;17.50;39.70;;;14.74;44.04;101528.19;12250685;19;19915;-92
2022/07/28 02:14:47;;;;;;;;;;;17.30;39.60;;;14.32;44.07;101471.94;12253097;19;19907;-91
2022/07/28 02:18:49;;;;;;;;;;;17.10;39.50;;;14.33;44.04;101489.41;12248830;19;19924;-92
2022/07/28 02:22:52;;;;;;;;;;;16.90;39.50;;;14.53;44.06;101532.94;12249121;19;20004;-91
2022/07/28 02:26:59;;;;;;;;;;;16.80;39.60;;;14.51;44.07;101542.66;12252980;19;20321;-91
2022/07/28 02:31:15;;;;;;;;;;;16.80;39.70;;;14.48;44.19;101543.69;12253288;19;19918;-93
2022/07/28 02:35:36;;;;;;;;;;;16.80;39.70;;;14.55;44.07;101563.44;12252127;19;19923;-91
2022/07/28 02:39:47;;;;;;;;;;;16.70;39.60;;;13.97;44.44;101481.88;12248635;19;20412;-92
2022/07/28 02:43:51;;;;;;;;;;;16.70;39.70;;;14.39;44.48;101559.97;12248440;19;19911;-92
2022/07/28 02:47:55;;;;;;;;;;;16.90;39.90;;;14.26;44.12;101530.97;12247983;19;19926;-91
2022/07/28 02:51:59;;;;;;;;;;;16.50;39.80;;;14.34;44.41;101560.25;12246761;19;19940;-91
2022/07/28 02:56:01;;;;;;;;;;;16.50;39.90;;;13.83;44.29;101485.28;12249564;19;19930;-91
2022/07/28 03:00:03;;;;;;;;;;;16.50;40.00;;;14.28;44.41;101560.59;12247514;19;20253;-91
2022/07/28 03:04:05;;;;;;;;;;;16.50;39.90;;;14.26;44.47;101569.53;12245877;19;20257;-92
2022/07/28 03:08:08;;;;;;;;;;;16.50;40.00;;;14.36;44.30;101586.44;12248838;19;20386;-91
2022/07/28 03:12:10;;;;;;;;;;;16.40;40.00;;;14.22;44.46;101570.63;12247252;19;19925;-92
2022/07/28 03:16:13;;;;;;;;;;;16.60;40.10;;;13.67;44.49;101486.16;12249400;19;19923;-92
2022/07/28 03:20:14;;;;;;;;;;;16.40;40.00;;;14.07;44.43;101569.69;12246504;19;19915;-91
2022/07/28 03:24:16;;;;;;;;;;;16.40;40.00;;;14.16;44.42;101593.66;12244966;19;19940;-92
2022/07/28 03:28:20;;;;;;;;;;;16.40;40.00;;;14.16;44.39;101598.94;12248051;19;19918;-91
2022/07/28 03:32:22;;;;;;;;;;;16.40;40.00;;;14.04;44.54;101589.13;12242685;19;19922;-91
2022/07/28 03:36:38;;;;;;;;;;;16.60;40.10;;;13.82;44.44;101570.22;12245049;19;20004;-91
2022/07/28 03:40:41;;;;;;;;;;;16.30;39.90;;;13.87;44.52;101590.03;12242615;19;20330;-92
2022/07/28 03:44:44;;;;;;;;;;;16.20;39.80;;;13.87;44.67;101600.53;12246024;19;19914;-91
2022/07/28 03:48:46;;;;;;;;;;;16.10;39.90;;;13.17;44.60;101502.00;12245344;19;19931;-92
2022/07/28 03:52:47;;;;;;;;;;;16.00;39.90;;;13.10;44.66;101500.66;12245091;19;19978;-91
2022/07/28 03:56:49;;;;;;;;;;;16.00;39.90;;;13.57;45.04;101591.72;12245022;19;19915;-91
2022/07/28 04:00:51;;;;;;;;;;;16.00;40.00;;;13.37;44.78;101569.19;12242910;19;19921;-90
2022/07/28 04:04:52;;;;;;;;;;;16.10;40.10;;;13.59;44.75;101603.81;12244306;19;19923;-91
2022/07/28 04:08:54;;;;;;;;;;;16.00;40.10;;;13.16;44.61;101544.91;12244655;19;19922;-92
2022/07/28 04:12:57;;;;;;;;;;;15.80;40.10;;;13.39;44.95;101583.03;12242739;19;19930;-91
2022/07/28 04:16:58;;;;;;;;;;;16.00;40.40;;;13.54;44.94;101611.09;12244294;19;19927;-91
2022/07/28 04:21:00;;;;;;;;;;;15.80;40.40;;;13.54;44.96;101605.84;12243697;19;19934;-91
2022/07/28 04:25:02;;;;;;;;;;;15.80;40.50;;;13.58;44.97;101591.63;12244653;19;19947;-92
2022/07/28 04:29:04;;;;;;;;;;;15.80;40.60;;;13.59;45.06;101588.09;12244337;19;19925;-92
2022/07/28 04:33:05;;;;;;;;;;;15.90;40.80;;;13.72;45.08;101612.75;12239056;19;19925;-91
2022/07/28 04:37:08;;;;;;;;;;;15.90;40.80;;;13.81;44.89;101616.63;12239883;19;19914;-91
2022/07/28 04:41:09;;;;;;;;;;;16.20;40.80;;;13.84;45.04;101607.75;12238729;19;19926;-92
2022/07/28 04:45:11;;;;;;;;;;;16.00;40.70;;;13.73;45.11;101601.28;12246826;19;20321;-92
2022/07/28 04:49:13;;;;;;;;;;;16.00;40.70;;;13.79;44.99;101602.75;12251611;19;19939;-91
2022/07/28 04:53:15;;;;;;;;;;;15.90;40.70;;;13.76;45.03;101594.19;12247110;19;19919;-91
2022/07/28 04:57:16;;;;;;;;;;;16.00;41.10;;;13.89;45.13;101617.06;12247130;19;19928;-92
2022/07/28 05:01:20;;;;;;;;;;;16.10;40.90;;;13.51;45.23;101553.53;12247074;19;19915;-91
2022/07/28 05:05:21;;;;;;;;;;;16.30;41.00;;;13.38;45.19;101528.88;12249894;19;19915;-92
2022/07/28 05:09:23;;;;;;;;;;;16.10;41.00;;;13.84;45.32;101605.13;12251188;19;19931;-91
2022/07/28 05:13:25;;;;;;;;;;;16.10;41.20;;;14.00;45.59;101607.75;12246879;19;19910;-92
2022/07/28 05:17:26;;;;;;;;;;;16.50;41.30;;;14.05;45.34;101605.72;12248231;19;19918;-91
2022/07/28 05:21:28;;;;;;;;;;;16.20;41.30;;;13.97;45.54;101587.75;12249308;19;19922;-91
2022/07/28 05:25:29;;;;;;;;;;;16.50;41.50;;;13.93;45.46;101565.22;12250158;19;19961;-91
2022/07/28 05:29:31;;;;;;;;;;;16.40;41.60;;;13.72;45.59;101520.03;12249781;19;19925;-92
2022/07/28 05:33:34;;;;;;;;;;;16.40;41.80;;;14.44;45.63;101615.75;12245793;19;19923;-92
2022/07/28 05:37:36;;;;;;;;;;;16.80;42.10;;;14.05;45.59;101542.69;12253011;19;19917;-93
2022/07/28 05:41:37;;;;;;;;;;;16.60;42.00;;;14.19;45.77;101549.78;12251717;19;19926;-92
2022/07/28 05:45:40;;;;;;;;;;;16.90;42.20;;;14.25;45.69;101542.38;12259991;19;19919;-91
2022/07/28 05:49:41;;;;;;;;;;;17.00;42.40;;;14.72;45.79;101577.41;12253862;19;19914;-92
2022/07/28 05:53:43;;;;;;;;;;;17.20;42.70;;;15.02;46.00;101578.19;12243290;19;20266;-92
2022/07/28 05:57:44;;;;;;;;;;;17.70;43.00;;;15.63;45.98;101617.47;12249144;19;19948;-92
2022/07/28 06:01:46;;;;;;;;;;;17.70;43.30;;;16.12;45.91;101639.00;12246128;19;19978;-92
2022/07/28 06:05:49;;;;;;;;;;;18.00;43.70;;;16.53;45.86;101647.81;12248145;19;19960;-91
2022/07/28 06:09:50;;;;;;;;;;;18.10;43.00;;;16.80;45.85;101630.16;12251549;19;19911;-91
2022/07/28 06:13:52;;;;;;;;;;;18.40;43.10;;;17.25;45.86;101657.03;12249415;19;19911;-89
2022/07/28 06:17:54;;;;;;;;;;;18.60;42.80;;;17.30;45.71;101613.63;12250609;19;20173;-91
2022/07/28 06:21:56;;;;;;;;;;;19.20;42.70;;;17.28;45.79;101579.41;12251000;19;19927;-91
2022/07/28 06:25:57;;;;;;;;;;;19.60;42.50;;;17.62;45.92;101617.50;12254764;19;19922;-91
2022/07/28 06:29:59;;;;;;;;;;;19.60;42.10;;;17.45;45.78;101576.44;12249359;19;19941;-91
2022/07/28 06:34:01;;;;;;;;;;;20.10;42.00;;;17.69;45.66;101592.34;12248655;19;20007;-92
2022/07/28 06:38:02;;;;;;;;;;;20.10;41.90;;;18.02;45.59;101624.41;12247634;19;19927;-92
2022/07/28 06:42:04;;;;;;;;;;;20.10;41.60;;;18.01;45.37;101586.56;12247631;19;19927;-91
2022/07/28 06:46:06;;;;;;;;;;;20.30;41.60;;;18.09;45.47;101578.06;12247567;19;20383;-90
2022/07/28 06:50:08;;;;;;;;;;;20.40;41.50;;;18.51;45.33;101631.41;12246123;19;19926;-90
2022/07/28 06:54:09;;;;;;;;;;;20.80;41.50;;;18.31;45.45;101578.19;12241610;19;19932;-92
2022/07/28 06:58:11;;;;;;;;;;;20.80;41.40;;;18.69;45.51;101627.38;12243871;19;19943;-90
2022/07/28 07:02:13;;;;;;;;;;;20.80;41.30;;;18.50;45.29;101571.53;12244851;19;19926;-90
2022/07/28 07:06:15;;;;;;;;;;;20.80;41.00;;;18.92;45.46;101620.38;12246001;19;19942;-90
2022/07/28 07:10:16;;;;;;;;;;;21.00;41.10;;;19.07;45.43;101625.47;12247325;19;19922;-90
2022/07/28 07:14:17;;;;;;;;;;;21.10;41.00;;;18.96;45.52;101595.34;12244670;19;19923;-90
2022/07/28 07:18:19;;;;;;;;;;;21.30;40.90;;;18.96;45.17;101578.63;12257595;19;19914;-90
2022/07/28 07:22:20;;;;;;;;;;;21.40;40.90;;;19.10;45.46;101578.41;12246943;19;19946;-91
2022/07/28 07:26:22;;;;;;;;;;;21.40;40.80;;;19.22;45.33;101589.84;12246739;19;19961;-90
2022/07/28 07:30:23;;;;;;;;;;;21.50;40.70;;;19.42;45.11;101588.28;12247047;19;19919;-91
2022/07/28 07:34:25;;;;;;;;;;;21.70;40.90;;;19.58;45.37;101593.22;12248084;19;19946;-90
2022/07/28 07:38:26;;;;;;;;;;;21.80;40.80;;;20.09;45.27;101659.81;12252933;19;20371;-89
2022/07/28 07:42:28;;;;;;;;;;;21.90;40.90;;;19.76;45.08;101569.72;12252820;19;19963;-91
2022/07/28 07:46:29;;;;;;;;;;;22.00;40.80;;;20.41;44.98;101661.63;12256162;19;19915;-90
2022/07/28 07:50:31;;;;;;;;;;;22.50;40.90;;;20.32;45.34;101617.31;12248320;19;19919;-91
2022/07/28 07:54:32;;;;;;;;;;;22.30;40.70;;;20.53;44.96;101626.16;12241491;19;19923;-91
2022/07/28 07:58:35;;;;;;;;;;;22.40;40.70;;;20.52;44.75;101608.53;12242525;19;19923;-90
2022/07/28 08:02:40;;;;;;;;;;;22.60;40.60;;;20.78;44.90;101640.88;12257242;19;20397;-90
2022/07/28 08:06:41;;;;;;;;;;;22.70;40.50;;;20.72;44.65;101614.03;12252738;19;20381;-93
2022/07/28 08:10:43;;;;;;;;;;;22.80;40.40;;;20.81;45.07;101618.53;12248689;19;19922;-90
2022/07/28 08:14:44;;;;;;;;;;;22.90;40.50;;;21.16;44.96;101654.56;12248535;19;19961;-91
2022/07/28 08:18:46;;;;;;;;;;;23.00;40.40;;;20.84;44.72;101585.59;12249689;19;20385;-91
2022/07/28 08:22:52;;;;;;;;;;;23.10;40.10;;;20.94;44.78;101594.47;12255561;19;19941;-91
2022/07/28 08:26:54;;;;;;;;;;;23.20;40.10;;;21.20;44.65;101634.72;12259230;19;19911;-92
2022/07/28 08:30:55;;;;;;;;;;;23.20;39.90;;;21.38;44.44;101659.72;12255866;19;19955;-91
2022/07/28 08:34:57;;;;;;;;;;;23.50;40.00;;;20.96;44.55;101589.88;12252424;19;19919;-91
2022/07/28 08:38:59;;;;;;;;;;;23.50;40.00;;;21.08;44.84;101599.41;12255546;19;19919;-91
2022/07/28 08:43:22;;;;;;;;;;;23.40;40.10;;;21.54;44.72;101647.78;12254676;19;19923;-92
2022/07/28 08:47:25;;;;;;;;;;;23.40;40.00;;;21.58;44.55;101635.91;12261871;19;19930;-90
2022/07/28 08:51:27;;;;;;;;;;;23.50;39.80;;;21.49;44.51;101613.63;12258120;19;19911;-92
2022/07/28 08:55:30;;;;;;;;;;;23.60;39.80;;;21.65;44.59;101611.28;12260839;19;19914;-90
2022/07/28 08:59:32;;;;;;;;;;;23.70;39.90;;;21.81;44.38;101597.50;12258333;19;20219;-90
2022/07/28 09:03:34;;;;;;;;;;;23.90;40.10;;;22.48;44.52;101662.44;12250960;19;19939;-91
2022/07/28 09:07:38;;;;;;;;;;;24.10;40.10;;;22.14;44.04;101578.63;12259284;19;19921;-90
2022/07/28 09:11:39;;;;;;;;;;;24.30;39.70;;;22.48;44.11;101635.00;12258558;19;19922;-93
2022/07/28 09:15:43;;;;;;;;;;;24.40;39.60;;;22.22;44.21;101600.94;12258364;19;20329;-91
2022/07/28 09:19:44;;;;;;;;;;;24.50;39.50;;;22.05;44.31;101572.34;12253609;19;19919;-91
2022/07/28 09:23:48;;;;;;;;;;;24.40;39.30;;;22.28;44.16;101610.22;12249590;19;19918;-90
2022/07/28 09:27:50;;;;;;;;;;;24.50;39.20;;;22.33;44.15;101629.22;12252734;19;20318;-91
2022/07/28 09:31:52;;;;;;;;;;;24.40;39.20;;;22.25;44.07;101599.81;12249635;19;19970;-92
2022/07/28 09:35:56;;;;;;;;;;;24.40;39.20;;;22.52;44.17;101631.91;12250098;19;19935;-90
2022/07/28 09:40:08;;;;;;;;;;;24.40;38.70;;;22.27;43.62;101592.53;12248652;19;19936;-92
2022/07/28 09:44:20;;;;;;;;;;;24.60;38.70;;;22.15;43.88;101586.50;12246571;19;19919;-91
2022/07/28 09:48:21;;;;;;;;;;;24.50;38.70;;;22.23;43.82;101583.16;12250763;19;19919;-91
2022/07/28 09:52:32;;;;;;;;;;;24.50;38.90;;;22.48;43.77;101619.84;12247739;19;19903;-91
2022/07/28 09:56:33;;;;;;;;;;;24.60;38.90;;;22.49;43.80;101605.59;12256085;19;19917;-91
2022/07/28 10:00:35;;;;;;;;;;;24.60;39.00;;;22.70;43.80;101617.88;12248808;19;19951;-91
2022/07/28 10:04:39;;;;;;;;;;;24.80;39.10;;;22.51;43.84;101578.81;12251663;19;19910;-90
2022/07/28 10:08:47;;;;;;;;;;;24.80;39.00;;;22.88;43.73;101620.66;12249844;19;19986;-91
2022/07/28 10:12:48;;;;;;;;;;;24.80;39.00;;;22.72;43.79;101570.66;12250832;19;19918;-91
2022/07/28 10:16:52;;;;;;;;;;;24.90;39.00;;;22.95;43.62;101601.31;12259215;19;19935;-91
2022/07/28 10:20:54;;;;;;;;;;;25.00;38.60;;;23.20;43.27;101633.66;12253851;19;20342;-92
2022/07/28 10:24:57;;;;;;;;;;;25.10;38.70;;;23.20;43.56;101628.34;12258439;19;19910;-92
2022/07/28 10:29:03;;;;;;;;;;;25.10;38.70;;;22.86;43.58;101569.34;12256509;19;19915;-92
2022/07/28 10:33:12;;;;;;;;;;;25.20;38.50;;;22.94;43.68;101580.13;12245881;19;19930;-92
2022/07/28 10:37:24;;;;;;;;;;;25.20;38.60;;;23.40;43.42;101640.59;12247440;19;19926;-89
2022/07/28 10:41:28;;;;;;;;;;;25.20;38.50;;;22.65;43.53;101521.59;12244582;19;19911;-93
2022/07/28 10:45:30;;;;;;;;;;;25.30;38.60;;;23.08;43.63;101569.03;12245504;19;19936;-92
2022/07/28 10:49:31;;;;;;;;;;;25.30;38.40;;;23.22;43.03;101578.38;12244954;19;19923;-91
2022/07/28 10:53:42;;;;;;;;;;;25.40;38.30;;;23.70;43.42;101641.31;12242451;19;19922;-92
2022/07/28 10:57:57;;;;;;;;;;;25.40;38.50;;;23.50;43.20;101571.25;12245022;19;19926;-92
2022/07/28 11:01:59;;;;;;;;;;;25.60;38.00;;;23.90;42.97;101623.41;12246967;19;19922;-92
2022/07/28 11:06:26;;;;;;;;;;;25.60;38.40;;;24.12;42.68;101632.81;12253342;19;19919;-91
2022/07/28 11:10:29;;;;;;;;;;;25.80;38.10;;;24.13;42.55;101610.47;12246991;19;19915;-91
2022/07/28 11:14:35;;;;;;;;;;;25.90;36.30;;;23.94;42.56;101574.09;12245968;19;19926;-93
2022/07/28 11:19:02;;;;;;;;;;;25.90;37.80;;;24.23;42.47;101632.59;12244357;19;19918;-92
2022/07/28 11:23:46;;;;;;;;;;;26.20;38.30;;;24.07;42.73;101603.91;12241122;19;19974;-91
2022/07/28 11:27:50;;;;;;;;;;;26.00;37.60;;;24.12;42.59;101624.81;12246816;19;19923;-91
2022/07/28 11:31:51;;;;;;;;;;;25.90;37.40;;;24.19;42.46;101620.53;12244728;19;19925;-90
2022/07/28 11:35:55;;;;;;;;;;;25.90;37.50;;;24.14;42.45;101589.94;12242995;19;19960;-88
2022/07/28 11:40:16;;;;;;;;;;;26.00;37.60;;;24.26;42.10;101607.41;12241365;19;20329;-90
2022/07/28 11:44:29;;;;;;;;;;;26.00;37.70;;;24.19;42.58;101583.16;12240057;19;20002;-92
2022/07/28 11:48:32;;;;;;;;;;;26.10;37.80;;;24.30;42.32;101598.09;12243384;19;20620;-91
2022/07/28 11:52:34;;;;;;;;;;;26.10;37.80;;;24.26;41.89;101586.91;12243909;19;19911;-92
2022/07/28 11:56:36;;;;;;;;;;;26.10;37.80;;;24.32;42.23;101600.63;12256025;19;19922;-91
2022/07/28 12:00:38;;;;;;;;;;;26.10;37.60;;;24.02;42.21;101543.97;12250300;19;19914;-91
2022/07/28 12:04:39;;;;;;;;;;;26.10;37.60;;;24.31;41.95;101590.97;12255135;19;20358;-91
2022/07/28 12:08:57;;;;;;;;;;;26.20;37.40;;;24.42;42.35;101604.06;12251242;19;19918;-90
2022/07/28 12:13:01;;;;;;;;;;;26.10;37.40;;;24.38;41.84;101575.97;12253766;19;19915;-92
2022/07/28 12:17:03;;;;;;;;;;;26.20;37.40;;;24.45;41.93;101577.91;12251917;19;19922;-92
2022/07/28 12:21:05;;;;;;;;;;;26.30;37.30;;;24.63;41.84;101582.41;12251064;19;19933;-94
2022/07/28 12:25:07;;;;;;;;;;;26.30;37.20;;;24.65;41.96;101562.53;12255651;19;19919;-91
2022/07/28 12:29:13;;;;;;;;;;;26.40;37.40;;;24.54;41.41;101517.38;12256206;19;20257;-92
2022/07/28 12:33:17;;;;;;;;;;;26.50;37.20;;;25.00;41.90;101560.75;12251187;19;19940;-93
2022/07/28 12:37:21;;;;;;;;;;;26.60;37.50;;;24.89;41.53;101520.94;12254814;19;19914;-92
2022/07/28 12:41:29;;;;;;;;;;;26.70;37.30;;;25.31;41.27;101565.63;12257165;19;20059;-94
2022/07/28 12:45:32;;;;;;;;;;;26.90;37.40;;;25.38;41.27;101556.78;12284571;19;19950;-93
2022/07/28 12:49:34;;;;;;;;;;;27.00;36.90;;;25.39;41.13;101536.22;12275904;19;19918;-93
2022/07/28 12:53:49;;;;;;;;;;;27.10;37.00;;;25.37;40.97;101508.81;12261619;19;19919;-92
2022/07/28 12:57:52;;;;;;;;;;;27.20;37.20;;;25.73;41.14;101546.84;12255894;19;19923;-93
2022/07/28 13:01:55;;;;;;;;;;;27.30;37.10;;;25.91;41.08;101549.41;12257753;19;19949;-92
2022/07/28 13:06:08;;;;;;;;;;;27.60;37.50;;;25.81;41.03;101521.94;12248491;19;19915;-93
2022/07/28 13:10:09;;;;;;;;;;;27.60;37.30;;;25.90;40.43;101553.13;12251361;19;19923;-91
2022/07/28 13:14:11;;;;;;;;;;;27.70;35.90;;;25.25;40.66;101446.78;12247295;19;19984;-92
2022/07/28 13:18:12;;;;;;;;;;;27.70;36.50;;;25.92;40.42;101556.44;12249882;19;19913;-92
2022/07/28 13:22:29;;;;;;;;;;;27.70;36.50;;;25.46;40.63;101481.06;12260790;19;19914;-93
2022/07/28 13:26:30;;;;;;;;;;;27.70;36.40;;;25.69;40.49;101493.84;12252331;19;19970;-91
2022/07/28 13:30:32;;;;;;;;;;;27.70;35.40;;;25.77;40.39;101512.59;12254273;19;20360;-91
2022/07/28 13:34:33;;;;;;;;;;;27.70;36.40;;;25.80;40.20;101502.38;12253728;19;19939;-93
2022/07/28 13:38:35;;;;;;;;;;;27.50;34.30;;;25.51;40.38;101452.00;12251149;19;19951;-92
2022/07/28 13:42:36;;;;;;;;;;;27.70;35.00;;;25.68;40.09;101478.78;12257213;19;19926;-92
2022/07/28 13:46:38;;;;;;;;;;;28.00;36.50;;;25.73;39.89;101471.91;12249274;19;19957;-92
2022/07/28 13:50:39;;;;;;;;;;;27.70;36.20;;;25.93;39.85;101503.78;12255984;19;19918;-91
2022/07/28 13:54:41;;;;;;;;;;;27.70;35.50;;;26.04;39.65;101522.16;12252776;19;19958;-92
2022/07/28 13:58:42;;;;;;;;;;;27.80;35.90;;;25.99;39.90;101503.94;12253343;19;19918;-92
2022/07/28 14:02:44;;;;;;;;;;;27.80;35.80;;;26.04;39.75;101506.94;12254522;19;20293;-91
2022/07/28 14:06:46;;;;;;;;;;;27.80;34.80;;;25.79;39.51;101454.38;12253768;19;19917;-92
2022/07/28 14:10:50;;;;;;;;;;;27.90;35.60;;;25.91;39.29;101473.66;12259789;19;19928;-93
2022/07/28 14:14:52;;;;;;;;;;;28.10;35.80;;;25.88;39.52;101463.28;12249947;19;20306;-91
2022/07/28 14:18:53;;;;;;;;;;;27.90;35.80;;;25.92;39.36;101460.09;12243060;19;20278;-90
2022/07/28 14:22:57;;;;;;;;;;;27.70;36.00;;;25.99;39.48;101460.28;12246623;19;19930;-90
2022/07/28 14:26:58;;;;;;;;;;;28.00;35.70;;;25.73;39.36;101388.16;12247667;19;19957;-89
2022/07/28 14:30:59;;;;;;;;;;;28.10;35.90;;;26.13;38.90;101446.19;12247066;19;19919;-89
2022/07/28 14:35:01;;;;;;;;;;;28.20;36.40;;;26.19;39.24;101439.31;12246905;19;19918;-92
2022/07/28 14:39:07;;;;;;;;;;;28.20;36.30;;;26.00;39.39;101398.50;12246927;19;22176;-91
2022/07/28 14:43:09;;;;;;;;;;;28.30;36.10;;;26.29;39.20;101431.94;12249976;19;19926;-92
2022/07/28 14:47:10;;;;;;;;;;;28.40;36.10;;;26.52;39.11;101450.00;12249591;19;19918;-92
2022/07/28 14:51:11;;;;;;;;;;;28.40;34.90;;;26.26;39.13;101410.88;12248435;19;19931;-93
2022/07/28 14:55:13;;;;;;;;;;;28.40;34.90;;;26.48;39.24;101434.22;12250415;19;19925;-92
2022/07/28 14:59:14;;;;;;;;;;;28.50;35.40;;;26.21;39.00;101378.41;12251116;19;19950;-92
2022/07/28 15:03:16;;;;;;;;;;;28.50;35.10;;;26.20;39.19;101358.00;12245797;19;19929;-91
2022/07/28 15:07:17;;;;;;;;;;;28.60;35.30;;;26.59;38.84;101413.47;12250054;19;19911;-92
2022/07/28 15:11:19;;;;;;;;;;;28.60;35.40;;;26.81;38.74;101452.91;12251586;19;19990;-92
2022/07/28 15:15:25;;;;;;;;;;;28.70;35.60;;;26.70;38.88;101429.16;12249680;19;19922;-92
2022/07/28 15:19:26;;;;;;;;;;;28.60;35.60;;;26.75;38.68;101431.34;12246551;19;19922;-93
2022/07/28 15:23:27;;;;;;;;;;;28.60;35.10;;;26.97;38.53;101469.94;12247895;19;20265;-93
2022/07/28 15:27:29;;;;;;;;;;;28.70;35.40;;;26.65;38.65;101410.97;12247744;19;19919;-93
2022/07/28 15:31:30;;;;;;;;;;;28.60;34.50;;;26.58;38.40;101403.78;12249040;19;19923;-90
2022/07/28 15:35:32;;;;;;;;;;;28.70;35.40;;;26.62;38.37;101415.81;12251415;19;19923;-92
2022/07/28 15:39:34;;;;;;;;;;;28.60;35.30;;;26.63;38.01;101412.13;12246357;19;19935;-92
2022/07/28 15:43:37;;;;;;;;;;;28.60;35.20;;;26.25;38.23;101348.44;12239651;19;19978;-92
2022/07/28 15:47:39;;;;;;;;;;;28.50;35.20;;;26.97;37.99;101465.41;12244767;19;19922;-92
2022/07/28 15:51:42;;;;;;;;;;;28.30;35.30;;;26.27;38.37;101345.56;12244211;19;19923;-91
2022/07/28 15:56:12;;;;;;;;;;;28.60;34.90;;;26.69;38.03;101420.31;12245463;19;19937;-92
2022/07/28 16:00:20;;;;;;;;;;;28.80;35.10;;;27.01;37.78;101455.19;12243971;19;19923;-93
2022/07/28 16:04:22;;;;;;;;;;;28.70;35.20;;;26.34;38.18;101348.41;12244734;19;19922;-93
2022/07/28 16:08:23;;;;;;;;;;;28.80;35.50;;;26.61;37.85;101396.22;12245133;19;19919;-93
2022/07/28 16:12:25;;;;;;;;;;;28.70;34.60;;;26.65;37.98;101402.06;12243989;19;19915;-94
2022/07/28 16:16:26;;;;;;;;;;;28.60;35.00;;;26.80;37.60;101427.13;12251428;19;19918;-92
2022/07/28 16:20:28;;;;;;;;;;;28.60;34.70;;;26.59;37.85;101397.41;12246021;19;19934;-93
2022/07/28 16:24:30;;;;;;;;;;;28.60;34.90;;;26.52;37.91;101385.69;12252504;19;19919;-94
2022/07/28 16:28:32;;;;;;;;;;;28.50;34.60;;;26.35;37.99;101364.28;12256073;19;20255;-92
2022/07/28 16:32:33;;;;;;;;;;;28.80;34.80;;;26.53;37.65;101387.38;12253239;19;19927;-92
2022/07/28 16:36:35;;;;;;;;;;;28.80;34.90;;;26.52;37.66;101394.59;12258457;19;19915;-90
2022/07/28 16:40:37;;;;;;;;;;;28.50;34.30;;;26.45;37.74;101397.09;12265593;19;19930;-89
2022/07/28 16:44:39;;;;;;;;;;;28.50;34.40;;;26.61;38.00;101430.22;12266868;19;19915;-89
2022/07/28 16:48:40;;;;;;;;;;;28.40;34.60;;;26.48;37.34;101411.97;12270677;19;19918;-90
2022/07/28 16:52:42;;;;;;;;;;;28.40;34.70;;;26.63;37.50;101455.84;12258044;19;20507;-90
2022/07/28 16:56:44;;;;;;;;;;;28.30;34.60;;;26.66;37.61;101457.34;12262340;19;19915;-89
2022/07/28 17:00:46;;;;;;;;;;;28.30;34.70;;;26.38;37.46;101417.53;12256707;19;19918;-90
2022/07/28 17:04:47;;;;;;;;;;;28.30;34.80;;;26.53;37.45;101440.97;12268792;19;19970;-90
2022/07/28 17:08:49;;;;;;;;;;;28.30;34.70;;;26.61;37.16;101460.53;12265835;19;19910;-90
2022/07/28 17:12:50;;;;;;;;;;;28.20;34.40;;;26.40;37.68;101434.25;12261443;19;19913;-90
2022/07/28 17:16:52;;;;;;;;;;;28.20;34.60;;;26.30;37.49;101425.56;12263299;19;20001;-90
2022/07/28 17:20:53;;;;;;;;;;;28.20;34.60;;;26.13;37.42;101407.88;12268664;19;19935;-92
2022/07/28 17:24:54;;;;;;;;;;;28.10;34.30;;;26.30;37.17;101449.66;12271348;19;19941;-90
2022/07/28 17:28:57;;;;;;;;;;;28.00;34.50;;;26.34;37.52;101464.41;12269303;19;19934;-90
2022/07/28 17:32:59;;;;;;;;;;;28.00;34.60;;;26.28;37.27;101465.09;12256718;19;19949;-90
2022/07/28 17:37:01;;;;;;;;;;;28.00;34.70;;;25.60;37.37;101357.41;12256104;19;19915;-90
2022/07/28 17:41:02;;;;;;;;;;;27.90;34.90;;;25.92;37.40;101422.63;12254519;19;19918;-91
2022/07/28 17:45:05;;;;;;;;;;;27.90;35.00;;;26.15;37.70;101470.13;12255895;19;19907;-92
2022/07/28 17:49:07;;;;;;;;;;;27.80;34.70;;;25.77;37.23;101416.25;12257551;19;19919;-90
2022/07/28 17:53:09;;;;;;;;;;;27.80;34.80;;;25.52;37.41;101384.16;12261855;19;19911;-91
2022/07/28 17:57:11;;;;;;;;;;;27.70;34.80;;;26.00;37.59;101469.97;12260541;19;19926;-91
2022/07/28 18:01:12;;;;;;;;;;;27.70;34.90;;;25.44;37.33;101377.94;12259736;19;19911;-92
2022/07/28 18:05:17;;;;;;;;;;;27.70;35.00;;;25.76;37.67;101436.81;12262744;19;19928;-91
2022/07/28 18:09:19;;;;;;;;;;;27.70;35.00;;;25.57;37.42;101413.06;12258849;19;19961;-91
2022/07/28 18:13:24;;;;;;;;;;;27.60;35.00;;;25.56;37.66;101414.91;12252054;19;19915;-91
2022/07/28 18:17:27;;;;;;;;;;;27.50;35.10;;;25.48;37.45;101417.56;12261429;19;19926;-91